NC36 weather

Benton's Airfield
Pikeville, North Carolina, United States

Public forecast

Using degrees Fahrenheit for public forecast. Weather courtesy of forecast.io.

METAR (pilot weather report)

Closest report is Goldsboro-Wayne Municipal Airport, 4.1 nm (7.6 km) SE. Retrieved 2019/06/16 23:25 UTC (31 minutes ago):

KGWW 162325Z AUTO 21006KT 10SM CLR 29/19 A2999 RMK AO2 T02920194

TAF (pilot weather forecast)

Closest forecast is Seymour Johnson Air Force Base, 10.4 nm (19.2 km) SSE. Retrieved 2019/06/16 20:00 UTC (4 hours ago):

TAF KGSB 161956Z 1620/1802 25010G15KT 9999 FEW050 SCT200 QNH2992INS BECMG 1702/1703 19008KT 9999 SCT200 QNH2995INS BECMG 1714/1715 23010G15KT 9999 FEW050 SCT250 QNH2996INS TX33/1720Z TN20/1710Z LAST NO AMDS AFT 1620 NEXT 1704